Lula, Mississippi
Current Conditions -  °F | °C
As of 7:55 AM on Thursday 27 Nov 2014 (Local Time) from KCKM Reporting Station
Overcast Overcast  
Wind Chill: 30°   Ceiling: 3100
Heat Index: 37°   Visibility: 10mi
Dew Point: 30°   Wind: 10mph
Humidity: 75%   Direction: 340°NNW
Pressure: 30.48"   Gusts: NA
Location:  34.45°N, 90.48°W
Report Text: KCKM 271355Z AUTO 34009KT 10SM OVC031 03/M01 A3048 RMK AO1
Loading
Personal Weather Stations






























Interactive Weather Map New forecast layout! Learn more

10-Day Weather Forecast

Advertisements
Track Severe Weather on mobile